createdAt,value
2023-01-28T00:03:52.119Z,70.97
2023-01-28T00:08:55.936Z,71.11
2023-01-28T00:14:00.406Z,71.45
2023-01-28T00:19:01.897Z,71.28
2023-01-28T00:24:03.613Z,71.49
2023-01-28T00:29:05.373Z,71.20
2023-01-28T00:34:07.052Z,71.20
2023-01-28T00:39:13.739Z,71.17
2023-01-28T00:44:15.204Z,71.51
2023-01-28T00:49:16.806Z,71.60
2023-01-28T00:54:20.807Z,71.71
2023-01-28T00:59:22.257Z,71.62
2023-01-28T01:04:30.203Z,71.57
2023-01-28T01:09:31.761Z,71.03
2023-01-28T01:14:34.296Z,71.70
2023-01-28T01:19:37.264Z,71.40
2023-01-28T01:24:38.746Z,71.11
2023-01-28T01:29:40.444Z,71.61
2023-01-28T01:34:42.069Z,71.38
2023-01-28T01:39:43.584Z,71.71
2023-01-28T01:45:01.741Z,71.44
2023-01-28T01:50:12.937Z,71.54
2023-01-28T01:55:21.139Z,71.34
2023-01-28T02:00:22.651Z,71.67
2023-01-28T02:05:24.663Z,71.28
2023-01-28T02:10:26.340Z,71.78
2023-01-28T02:15:29.758Z,71.43
2023-01-28T02:20:59.222Z,71.16
2023-01-28T02:26:23.083Z,71.33
2023-01-28T02:31:33.790Z,71.84
2023-01-28T02:36:48.817Z,71.69
2023-01-28T02:41:56.603Z,71.81
2023-01-28T02:47:16.691Z,71.82
2023-01-28T02:52:49.144Z,71.54
2023-01-28T02:58:18.180Z,71.70
2023-01-28T03:03:31.630Z,71.66
2023-01-28T03:09:14.186Z,71.43
2023-01-28T03:14:42.624Z,71.50
2023-01-28T03:20:08.800Z,71.73
2023-01-28T03:25:30.878Z,71.23
2023-01-28T03:31:22.981Z,71.28
2023-01-28T03:36:49.153Z,71.42
2023-01-28T03:42:11.057Z,70.69
2023-01-28T03:47:16.264Z,70.90
2023-01-28T03:52:21.595Z,70.63
2023-01-28T03:57:25.641Z,70.63
2023-01-28T04:02:27.270Z,70.36
2023-01-28T04:07:28.839Z,70.01
2023-01-28T04:12:30.347Z,69.96
2023-01-28T04:17:31.806Z,69.67
2023-01-28T04:22:33.279Z,69.75
2023-01-28T04:27:34.866Z,69.52
2023-01-28T04:32:36.313Z,69.56
2023-01-28T04:37:37.963Z,69.27
2023-01-28T04:42:39.434Z,68.93
2023-01-28T04:47:42.362Z,68.62
2023-01-28T04:52:44.157Z,68.93
2023-01-28T04:57:47.798Z,68.71
2023-01-28T05:02:49.369Z,68.10
2023-01-28T05:07:55.226Z,68.48
2023-01-28T05:12:56.697Z,68.26
2023-01-28T05:18:07.160Z,68.06
2023-01-28T05:23:08.835Z,67.79
2023-01-28T05:28:10.259Z,67.70
2023-01-28T05:33:11.781Z,67.52
2023-01-28T05:38:15.294Z,67.60
2023-01-28T05:43:17.049Z,67.96
2023-01-28T05:48:18.605Z,68.04
2023-01-28T05:53:20.511Z,68.08
2023-01-28T05:58:22.212Z,67.43
2023-01-28T06:03:23.741Z,67.26
2023-01-28T06:08:25.213Z,67.30
2023-01-28T06:13:26.684Z,67.03
2023-01-28T06:18:28.116Z,67.00
2023-01-28T06:23:29.791Z,67.41
2023-01-28T06:28:32.000Z,67.01
2023-01-28T06:33:33.575Z,67.20
2023-01-28T06:38:35.321Z,67.08
2023-01-28T06:43:36.747Z,66.70
2023-01-28T06:48:38.314Z,66.55
2023-01-28T06:53:39.870Z,66.84
2023-01-28T06:58:41.523Z,66.37
2023-01-28T07:03:43.219Z,66.57
2023-01-28T07:08:46.990Z,66.50
2023-01-28T07:13:51.023Z,66.09
2023-01-28T07:18:52.508Z,66.30
2023-01-28T07:23:54.054Z,66.64
2023-01-28T07:28:55.585Z,65.66
2023-01-28T07:33:57.649Z,66.13
2023-01-28T07:38:59.092Z,65.92
2023-01-28T07:44:00.677Z,66.20
2023-01-28T07:49:02.321Z,65.71
2023-01-28T07:54:03.965Z,65.88
2023-01-28T07:59:05.419Z,65.65
2023-01-28T08:04:07.328Z,65.55
2023-01-28T08:09:10.150Z,65.12
2023-01-28T08:14:11.728Z,65.52
2023-01-28T08:19:13.055Z,65.37
2023-01-28T08:24:14.392Z,65.10
2023-01-28T08:29:15.897Z,65.11
2023-01-28T08:34:17.214Z,64.96
2023-01-28T08:39:18.677Z,64.68
2023-01-28T08:44:19.999Z,64.24
2023-01-28T08:49:22.207Z,64.54
2023-01-28T08:54:23.556Z,64.48
2023-01-28T08:59:24.944Z,64.31
2023-01-28T09:04:26.294Z,64.15
2023-01-28T09:09:27.626Z,63.63
2023-01-28T09:14:28.939Z,64.13
2023-01-28T09:19:30.355Z,63.58
2023-01-28T09:24:31.800Z,63.69
2023-01-28T09:29:37.261Z,63.76
2023-01-28T09:34:39.080Z,63.66
2023-01-28T09:39:40.486Z,63.88
2023-01-28T09:45:20.448Z,63.05
2023-01-28T09:50:38.453Z,63.33
2023-01-28T09:55:45.947Z,63.30
2023-01-28T10:00:55.403Z,63.85
2023-01-28T10:06:20.341Z,63.07
2023-01-28T10:11:37.637Z,63.10
2023-01-28T10:16:46.481Z,62.65
2023-01-28T10:22:00.184Z,62.62
2023-01-28T10:27:03.915Z,62.73
2023-01-28T10:32:22.469Z,62.77
2023-01-28T10:37:23.801Z,62.96
2023-01-28T10:42:35.894Z,62.77
2023-01-28T10:48:07.307Z,62.39
2023-01-28T10:53:08.629Z,62.29
2023-01-28T10:58:20.345Z,61.71
2023-01-28T11:03:27.163Z,62.22
2023-01-28T11:08:30.145Z,62.50
2023-01-28T11:13:31.457Z,62.15
2023-01-28T11:18:39.560Z,61.73
2023-01-28T11:23:59.686Z,61.27
2023-01-28T11:29:01.441Z,61.32
2023-01-28T11:34:05.560Z,60.83
2023-01-28T11:39:21.635Z,60.80
2023-01-28T11:44:25.394Z,60.36
2023-01-28T11:49:45.471Z,60.10
2023-01-28T11:55:11.259Z,60.69
2023-01-28T12:00:37.894Z,60.77
2023-01-28T12:05:46.521Z,60.71
2023-01-28T12:11:00.102Z,60.80
2023-01-28T12:16:30.890Z,60.30
2023-01-28T12:22:13.508Z,60.33
2023-01-28T12:27:33.023Z,59.83
2023-01-28T12:33:01.884Z,59.38
2023-01-28T12:38:15.575Z,59.35
2023-01-28T12:43:54.581Z,58.91
2023-01-28T12:49:05.226Z,58.50
2023-01-28T12:54:18.026Z,58.12
2023-01-28T12:59:33.957Z,58.36
2023-01-28T13:05:00.360Z,57.64
2023-01-28T13:10:20.692Z,57.98
2023-01-28T13:15:22.725Z,57.75
2023-01-28T13:20:35.233Z,57.17
2023-01-28T13:25:48.919Z,57.19
2023-01-28T13:30:50.402Z,56.89
2023-01-28T13:35:55.327Z,56.65
2023-01-28T13:41:06.287Z,56.31
2023-01-28T13:46:28.093Z,56.13
2023-01-28T13:51:33.485Z,56.35
2023-01-28T13:56:49.571Z,56.28
2023-01-28T14:02:28.229Z,55.78
2023-01-28T14:08:07.102Z,55.79
2023-01-28T14:13:36.357Z,55.63
2023-01-28T14:18:42.894Z,55.60
2023-01-28T14:23:50.272Z,55.33
2023-01-28T14:29:05.444Z,55.45
2023-01-28T14:34:30.913Z,54.92
2023-01-28T14:39:41.599Z,54.95
2023-01-28T14:44:44.845Z,55.35
2023-01-28T14:50:07.757Z,54.58
2023-01-28T14:55:22.536Z,54.46
2023-01-28T15:00:30.135Z,54.73
2023-01-28T15:05:31.920Z,54.11
2023-01-28T15:10:38.023Z,54.17
2023-01-28T15:15:40.864Z,53.78
2023-01-28T15:20:47.147Z,53.70
2023-01-28T15:25:48.587Z,54.41
2023-01-28T15:30:49.929Z,54.24
2023-01-28T15:35:56.417Z,53.74
2023-01-28T15:41:00.119Z,53.73
2023-01-28T15:46:01.654Z,53.75
2023-01-28T15:51:06.439Z,53.76
2023-01-28T15:56:25.749Z,53.91
2023-01-28T16:01:27.061Z,53.67
2023-01-28T16:06:33.286Z,53.73
2023-01-28T16:11:44.579Z,54.07
2023-01-28T16:16:47.835Z,54.26
2023-01-28T16:21:49.262Z,54.27
2023-01-28T16:27:05.576Z,54.06
2023-01-28T16:32:27.395Z,54.47
2023-01-28T16:37:29.188Z,54.37
2023-01-28T16:42:32.119Z,54.83
2023-01-28T16:47:33.483Z,55.35
2023-01-28T16:52:34.868Z,54.72
2023-01-28T16:57:37.006Z,54.86
2023-01-28T17:02:38.316Z,55.00
2023-01-28T17:07:39.700Z,55.25
2023-01-28T17:12:41.067Z,55.36
2023-01-28T17:17:42.629Z,55.45
2023-01-28T17:22:44.340Z,55.61
2023-01-28T17:27:48.891Z,55.43
2023-01-28T17:32:50.264Z,55.72
2023-01-28T17:37:55.178Z,55.81
2023-01-28T17:42:56.534Z,55.69
2023-01-28T17:47:57.930Z,55.94
2023-01-28T17:52:59.426Z,56.21
2023-01-28T17:58:00.763Z,55.99
2023-01-28T18:03:02.180Z,56.17
2023-01-28T18:08:04.471Z,56.99
2023-01-28T18:13:05.845Z,56.50
2023-01-28T18:18:07.499Z,56.40
2023-01-28T18:23:08.823Z,56.40
2023-01-28T18:28:10.133Z,57.34
2023-01-28T18:33:11.488Z,57.14
2023-01-28T18:38:13.870Z,57.44
2023-01-28T18:43:15.232Z,57.54
2023-01-28T18:48:17.724Z,56.91
2023-01-28T18:53:19.944Z,57.37
2023-01-28T18:58:21.396Z,57.36
2023-01-28T19:03:22.865Z,57.08
2023-01-28T19:08:24.171Z,57.37
2023-01-28T19:13:25.584Z,57.38
2023-01-28T19:18:27.098Z,56.89
2023-01-28T19:23:32.988Z,57.11
2023-01-28T19:28:39.332Z,57.13
2023-01-28T19:33:41.233Z,57.07
2023-01-28T19:38:42.858Z,57.38
2023-01-28T19:43:44.451Z,56.50
2023-01-28T19:48:46.117Z,56.83
2023-01-28T19:53:50.576Z,56.44
2023-01-28T19:58:53.687Z,56.75
2023-01-28T20:03:58.573Z,56.60
2023-01-28T20:09:08.941Z,56.55
2023-01-28T20:14:11.534Z,56.71
2023-01-28T20:19:15.616Z,56.45
2023-01-28T20:24:16.997Z,56.60
2023-01-28T20:29:19.812Z,56.42
2023-01-28T20:34:21.361Z,56.49
2023-01-28T20:39:22.697Z,56.49
2023-01-28T20:44:24.124Z,56.76
2023-01-28T20:49:27.918Z,56.62
2023-01-28T20:54:29.726Z,56.35
2023-01-28T20:59:32.208Z,56.36
2023-01-28T21:04:33.790Z,56.22
2023-01-28T21:09:35.121Z,56.10
2023-01-28T21:14:36.500Z,56.66
2023-01-28T21:19:37.888Z,56.43
2023-01-28T21:24:40.809Z,56.30
2023-01-28T21:29:42.526Z,56.18
2023-01-28T21:34:44.043Z,55.91
2023-01-28T21:39:45.389Z,56.30
2023-01-28T21:44:47.794Z,56.43
2023-01-28T21:49:49.155Z,56.33
2023-01-28T21:54:50.460Z,56.13
2023-01-28T21:59:51.764Z,55.99
2023-01-28T22:04:53.059Z,56.13
2023-01-28T22:09:54.386Z,55.79
2023-01-28T22:14:56.341Z,55.82
2023-01-28T22:19:57.703Z,55.89
2023-01-28T22:24:59.796Z,55.87
2023-01-28T22:30:01.134Z,56.22
2023-01-28T22:35:04.619Z,56.17
2023-01-28T22:40:06.457Z,55.70
2023-01-28T22:45:08.472Z,55.70
2023-01-28T22:50:10.584Z,55.39
2023-01-28T22:55:11.902Z,55.54
2023-01-28T23:00:15.574Z,55.46
2023-01-28T23:05:17.118Z,55.40
2023-01-28T23:10:18.773Z,55.39
2023-01-28T23:15:41.343Z,55.43
2023-01-28T23:21:01.569Z,55.41
2023-01-28T23:26:03.159Z,55.40
2023-01-28T23:31:04.820Z,54.84
2023-01-28T23:36:06.246Z,55.37
2023-01-28T23:41:08.583Z,55.57
2023-01-28T23:46:10.285Z,54.88
2023-01-28T23:51:11.727Z,55.01
2023-01-28T23:56:13.023Z,55.41
